sensor_id;sensor_type;location;lat;lon;timestamp;pressure;altitude;pressure_sealevel;temperature;humidity
55590;BME280;41452;42.780;23.116;2023-05-24T00:01:08;94215.81;;;10.77;96.03
55590;BME280;41452;42.780;23.116;2023-05-24T00:03:33;94203.38;;;10.60;96.38
55590;BME280;41452;42.780;23.116;2023-05-24T00:06:03;94167.50;;;10.37;96.73
55590;BME280;41452;42.780;23.116;2023-05-24T00:08:33;94197.91;;;10.62;96.29
55590;BME280;41452;42.780;23.116;2023-05-24T00:10:59;94174.34;;;10.50;96.06
55590;BME280;41452;42.780;23.116;2023-05-24T00:13:25;94203.13;;;10.74;96.08
55590;BME280;41452;42.780;23.116;2023-05-24T00:15:51;94162.31;;;10.54;95.75
55590;BME280;41452;42.780;23.116;2023-05-24T00:18:17;94197.44;;;10.65;96.04
55590;BME280;41452;42.780;23.116;2023-05-24T00:20:43;94196.09;;;10.62;96.50
55590;BME280;41452;42.780;23.116;2023-05-24T00:23:09;94179.38;;;10.40;96.66
55590;BME280;41452;42.780;23.116;2023-05-24T00:25:34;94183.84;;;10.39;96.91
55590;BME280;41452;42.780;23.116;2023-05-24T00:27:59;94167.63;;;10.31;97.28
55590;BME280;41452;42.780;23.116;2023-05-24T00:30:25;94187.81;;;10.42;98.02
55590;BME280;41452;42.780;23.116;2023-05-24T00:32:51;94195.69;;;10.42;97.83
55590;BME280;41452;42.780;23.116;2023-05-24T00:35:16;94192.50;;;10.40;97.55
55590;BME280;41452;42.780;23.116;2023-05-24T00:37:41;94177.47;;;10.23;98.54
55590;BME280;41452;42.780;23.116;2023-05-24T00:40:10;94175.72;;;10.29;97.55
55590;BME280;41452;42.780;23.116;2023-05-24T00:42:35;94182.91;;;10.34;98.17
55590;BME280;41452;42.780;23.116;2023-05-24T00:45:01;94194.00;;;10.36;98.60
55590;BME280;41452;42.780;23.116;2023-05-24T00:47:28;94193.69;;;10.32;99.12
55590;BME280;41452;42.780;23.116;2023-05-24T00:49:53;94169.03;;;10.09;99.52
55590;BME280;41452;42.780;23.116;2023-05-24T00:52:19;94186.13;;;10.24;99.66
55590;BME280;41452;42.780;23.116;2023-05-24T00:54:45;94170.88;;;10.09;100.00
55590;BME280;41452;42.780;23.116;2023-05-24T00:57:10;94158.78;;;10.08;99.79
55590;BME280;41452;42.780;23.116;2023-05-24T00:59:38;94191.84;;;10.33;99.86
55590;BME280;41452;42.780;23.116;2023-05-24T01:02:04;94165.47;;;10.16;99.54
55590;BME280;41452;42.780;23.116;2023-05-24T01:04:29;94192.16;;;10.24;99.74
55590;BME280;41452;42.780;23.116;2023-05-24T01:15:06;94168.94;;;10.04;100.00
55590;BME280;41452;42.780;23.116;2023-05-24T01:20:05;94196.06;;;10.22;99.15
55590;BME280;41452;42.780;23.116;2023-05-24T01:28:35;94183.38;;;10.19;98.54
55590;BME280;41452;42.780;23.116;2023-05-24T01:31:01;94188.41;;;10.20;98.71
55590;BME280;41452;42.780;23.116;2023-05-24T01:33:27;94157.44;;;9.94;99.22
55590;BME280;41452;42.780;23.116;2023-05-24T01:35:52;94148.31;;;9.84;99.07
55590;BME280;41452;42.780;23.116;2023-05-24T01:38:17;94177.03;;;10.03;98.77
55590;BME280;41452;42.780;23.116;2023-05-24T01:40:43;94186.63;;;10.09;99.37
55590;BME280;41452;42.780;23.116;2023-05-24T01:48:31;94185.56;;;9.98;99.89
55590;BME280;41452;42.780;23.116;2023-05-24T01:51:00;94160.75;;;9.65;100.00
55590;BME280;41452;42.780;23.116;2023-05-24T01:53:31;94141.59;;;9.53;100.00
55590;BME280;41452;42.780;23.116;2023-05-24T01:56:00;94166.31;;;9.57;100.00
55590;BME280;41452;42.780;23.116;2023-05-24T01:58:28;94172.81;;;9.78;100.00
55590;BME280;41452;42.780;23.116;2023-05-24T02:00:54;94179.78;;;9.84;100.00
55590;BME280;41452;42.780;23.116;2023-05-24T02:03:20;94178.63;;;9.80;100.00
55590;BME280;41452;42.780;23.116;2023-05-24T02:05:45;94182.75;;;9.76;100.00
55590;BME280;41452;42.780;23.116;2023-05-24T02:08:11;94154.03;;;9.69;100.00
55590;BME280;41452;42.780;23.116;2023-05-24T02:10:40;94157.47;;;9.70;100.00
55590;BME280;41452;42.780;23.116;2023-05-24T02:13:06;94146.50;;;9.73;100.00
55590;BME280;41452;42.780;23.116;2023-05-24T02:15:32;94171.09;;;9.84;100.00
55590;BME280;41452;42.780;23.116;2023-05-24T02:18:00;94167.13;;;9.81;100.00
55590;BME280;41452;42.780;23.116;2023-05-24T02:20:26;94176.34;;;9.84;100.00
55590;BME280;41452;42.780;23.116;2023-05-24T02:22:55;94163.94;;;9.79;100.00
55590;BME280;41452;42.780;23.116;2023-05-24T02:25:21;94120.97;;;9.57;100.00
55590;BME280;41452;42.780;23.116;2023-05-24T02:27:47;94157.78;;;9.74;100.00
55590;BME280;41452;42.780;23.116;2023-05-24T02:30:12;94171.00;;;9.79;100.00
55590;BME280;41452;42.780;23.116;2023-05-24T02:32:38;94150.59;;;9.69;100.00
55590;BME280;41452;42.780;23.116;2023-05-24T02:35:04;94164.63;;;9.75;100.00
55590;BME280;41452;42.780;23.116;2023-05-24T02:37:29;94164.28;;;9.71;100.00
55590;BME280;41452;42.780;23.116;2023-05-24T02:39:55;94166.66;;;9.61;100.00
55590;BME280;41452;42.780;23.116;2023-05-24T02:42:20;94163.59;;;9.64;100.00
55590;BME280;41452;42.780;23.116;2023-05-24T02:44:45;94138.88;;;9.48;100.00
55590;BME280;41452;42.780;23.116;2023-05-24T02:47:17;94167.94;;;9.70;100.00
55590;BME280;41452;42.780;23.116;2023-05-24T02:49:42;94174.66;;;9.66;100.00
55590;BME280;41452;42.780;23.116;2023-05-24T02:52:08;94155.28;;;9.55;100.00
55590;BME280;41452;42.780;23.116;2023-05-24T02:54:33;94177.72;;;9.63;100.00
55590;BME280;41452;42.780;23.116;2023-05-24T02:56:59;94184.00;;;9.62;100.00
55590;BME280;41452;42.780;23.116;2023-05-24T02:59:25;94152.06;;;9.41;100.00
55590;BME280;41452;42.780;23.116;2023-05-24T03:01:51;94185.38;;;9.64;100.00
55590;BME280;41452;42.780;23.116;2023-05-24T03:04:16;94189.81;;;9.64;100.00
55590;BME280;41452;42.780;23.116;2023-05-24T03:06:41;94199.28;;;9.65;100.00
55590;BME280;41452;42.780;23.116;2023-05-24T03:09:07;94195.19;;;9.69;100.00
55590;BME280;41452;42.780;23.116;2023-05-24T03:11:32;94207.72;;;9.67;100.00
55590;BME280;41452;42.780;23.116;2023-05-24T03:13:57;94175.78;;;9.35;100.00
55590;BME280;41452;42.780;23.116;2023-05-24T03:16:23;94206.00;;;9.49;100.00
55590;BME280;41452;42.780;23.116;2023-05-24T03:18:49;94190.94;;;9.44;100.00
55590;BME280;41452;42.780;23.116;2023-05-24T03:21:15;94192.44;;;9.52;100.00
55590;BME280;41452;42.780;23.116;2023-05-24T03:23:41;94213.41;;;9.64;100.00
55590;BME280;41452;42.780;23.116;2023-05-24T03:26:06;94206.91;;;9.55;100.00
55590;BME280;41452;42.780;23.116;2023-05-24T03:28:32;94204.31;;;9.55;100.00
55590;BME280;41452;42.780;23.116;2023-05-24T03:30:58;94147.50;;;9.25;100.00
55590;BME280;41452;42.780;23.116;2023-05-24T03:33:24;94216.72;;;9.71;100.00
55590;BME280;41452;42.780;23.116;2023-05-24T03:35:49;94214.81;;;9.66;100.00
55590;BME280;41452;42.780;23.116;2023-05-24T03:38:15;94213.97;;;9.66;100.00
55590;BME280;41452;42.780;23.116;2023-05-24T03:40:40;94187.09;;;9.47;100.00
55590;BME280;41452;42.780;23.116;2023-05-24T03:43:05;94188.91;;;9.46;100.00
55590;BME280;41452;42.780;23.116;2023-05-24T03:45:31;94188.19;;;9.39;100.00
55590;BME280;41452;42.780;23.116;2023-05-24T03:47:56;94212.84;;;9.62;100.00
55590;BME280;41452;42.780;23.116;2023-05-24T03:50:22;94208.63;;;9.61;100.00
55590;BME280;41452;42.780;23.116;2023-05-24T03:52:48;94210.22;;;9.62;100.00
55590;BME280;41452;42.780;23.116;2023-05-24T03:55:14;94189.47;;;9.37;100.00
55590;BME280;41452;42.780;23.116;2023-05-24T03:57:39;94221.03;;;9.54;100.00
55590;BME280;41452;42.780;23.116;2023-05-24T04:00:06;94213.28;;;9.59;100.00
55590;BME280;41452;42.780;23.116;2023-05-24T04:02:32;94168.94;;;9.33;100.00
55590;BME280;41452;42.780;23.116;2023-05-24T04:04:57;94206.91;;;9.55;100.00
55590;BME280;41452;42.780;23.116;2023-05-24T04:07:23;94188.53;;;9.43;100.00
55590;BME280;41452;42.780;23.116;2023-05-24T04:09:48;94207.59;;;9.62;100.00
55590;BME280;41452;42.780;23.116;2023-05-24T04:12:14;94210.59;;;9.77;100.00
55590;BME280;41452;42.780;23.116;2023-05-24T04:14:39;94197.59;;;9.70;100.00
55590;BME280;41452;42.780;23.116;2023-05-24T04:17:05;94210.34;;;9.79;100.00
55590;BME280;41452;42.780;23.116;2023-05-24T04:19:31;94173.19;;;9.70;100.00
55590;BME280;41452;42.780;23.116;2023-05-24T04:21:57;94191.75;;;9.92;100.00
55590;BME280;41452;42.780;23.116;2023-05-24T04:24:22;94210.91;;;10.16;100.00
55590;BME280;41452;42.780;23.116;2023-05-24T04:26:48;94203.44;;;10.25;100.00
55590;BME280;41452;42.780;23.116;2023-05-24T04:29:13;94211.22;;;10.32;100.00
55590;BME280;41452;42.780;23.116;2023-05-24T04:31:42;94215.56;;;10.38;100.00
55590;BME280;41452;42.780;23.116;2023-05-24T04:34:09;94214.06;;;10.54;100.00
55590;BME280;41452;42.780;23.116;2023-05-24T04:36:37;94219.81;;;10.68;100.00
55590;BME280;41452;42.780;23.116;2023-05-24T04:39:03;94222.75;;;10.83;100.00
55590;BME280;41452;42.780;23.116;2023-05-24T04:41:29;94217.34;;;10.90;100.00
55590;BME280;41452;42.780;23.116;2023-05-24T04:44:00;94225.19;;;11.01;100.00
55590;BME280;41452;42.780;23.116;2023-05-24T04:46:26;94220.59;;;11.09;100.00
55590;BME280;41452;42.780;23.116;2023-05-24T04:48:52;94211.66;;;11.10;100.00
55590;BME280;41452;42.780;23.116;2023-05-24T04:51:18;94233.06;;;11.30;100.00
55590;BME280;41452;42.780;23.116;2023-05-24T04:53:43;94210.41;;;11.29;100.00
55590;BME280;41452;42.780;23.116;2023-05-24T04:56:09;94185.69;;;10.96;100.00
55590;BME280;41452;42.780;23.116;2023-05-24T04:58:34;94191.09;;;11.07;100.00
55590;BME280;41452;42.780;23.116;2023-05-24T05:01:00;94209.38;;;11.30;100.00
55590;BME280;41452;42.780;23.116;2023-05-24T05:03:26;94228.28;;;11.61;100.00
55590;BME280;41452;42.780;23.116;2023-05-24T05:05:51;94229.22;;;11.72;100.00
55590;BME280;41452;42.780;23.116;2023-05-24T05:08:17;94248.59;;;11.83;100.00
55590;BME280;41452;42.780;23.116;2023-05-24T05:10:44;94229.16;;;11.84;100.00
55590;BME280;41452;42.780;23.116;2023-05-24T05:13:10;94214.72;;;11.86;100.00
55590;BME280;41452;42.780;23.116;2023-05-24T05:15:36;94223.50;;;11.92;100.00
55590;BME280;41452;42.780;23.116;2023-05-24T05:18:01;94202.22;;;11.93;100.00
55590;BME280;41452;42.780;23.116;2023-05-24T05:20:26;94181.25;;;11.82;100.00
55590;BME280;41452;42.780;23.116;2023-05-24T05:22:52;94222.50;;;12.32;100.00
55590;BME280;41452;42.780;23.116;2023-05-24T05:25:17;94239.03;;;12.49;100.00
55590;BME280;41452;42.780;23.116;2023-05-24T05:27:43;94247.66;;;12.45;100.00
55590;BME280;41452;42.780;23.116;2023-05-24T05:30:08;94246.50;;;12.58;100.00
55590;BME280;41452;42.780;23.116;2023-05-24T05:32:35;94221.69;;;12.53;100.00
55590;BME280;41452;42.780;23.116;2023-05-24T05:35:00;94243.94;;;12.85;100.00
55590;BME280;41452;42.780;23.116;2023-05-24T05:37:25;94237.59;;;12.86;100.00
55590;BME280;41452;42.780;23.116;2023-05-24T05:39:51;94228.84;;;12.80;100.00
55590;BME280;41452;42.780;23.116;2023-05-24T05:42:16;94219.47;;;12.89;100.00
55590;BME280;41452;42.780;23.116;2023-05-24T05:44:41;94227.97;;;12.97;100.00
55590;BME280;41452;42.780;23.116;2023-05-24T05:47:07;94247.09;;;13.09;100.00
55590;BME280;41452;42.780;23.116;2023-05-24T05:49:33;94232.28;;;13.03;100.00
55590;BME280;41452;42.780;23.116;2023-05-24T05:52:01;94257.50;;;13.21;100.00
55590;BME280;41452;42.780;23.116;2023-05-24T05:54:27;94262.16;;;13.36;100.00
55590;BME280;41452;42.780;23.116;2023-05-24T05:56:52;94265.34;;;13.38;100.00
55590;BME280;41452;42.780;23.116;2023-05-24T05:59:18;94242.47;;;13.21;100.00
55590;BME280;41452;42.780;23.116;2023-05-24T06:01:43;94264.00;;;13.35;100.00
55590;BME280;41452;42.780;23.116;2023-05-24T06:04:16;94245.16;;;13.26;100.00
55590;BME280;41452;42.780;23.116;2023-05-24T06:06:41;94267.34;;;13.53;100.00
55590;BME280;41452;42.780;23.116;2023-05-24T06:09:08;94268.75;;;13.65;100.00
55590;BME280;41452;42.780;23.116;2023-05-24T06:11:33;94267.03;;;13.81;100.00
55590;BME280;41452;42.780;23.116;2023-05-24T06:13:59;94262.78;;;13.75;100.00
55590;BME280;41452;42.780;23.116;2023-05-24T06:16:25;94249.88;;;13.79;100.00
55590;BME280;41452;42.780;23.116;2023-05-24T06:18:51;94272.75;;;14.00;100.00
55590;BME280;41452;42.780;23.116;2023-05-24T06:21:17;94241.47;;;13.87;100.00
55590;BME280;41452;42.780;23.116;2023-05-24T06:23:42;94251.13;;;14.03;100.00
55590;BME280;41452;42.780;23.116;2023-05-24T06:26:08;94250.00;;;13.99;100.00
55590;BME280;41452;42.780;23.116;2023-05-24T06:28:37;94271.66;;;14.34;100.00
55590;BME280;41452;42.780;23.116;2023-05-24T06:31:03;94248.16;;;14.37;100.00
55590;BME280;41452;42.780;23.116;2023-05-24T06:33:29;94262.50;;;14.52;100.00
55590;BME280;41452;42.780;23.116;2023-05-24T06:35:56;94268.97;;;14.71;100.00
55590;BME280;41452;42.780;23.116;2023-05-24T06:38:21;94269.00;;;14.76;100.00
55590;BME280;41452;42.780;23.116;2023-05-24T06:40:47;94268.91;;;14.61;100.00
55590;BME280;41452;42.780;23.116;2023-05-24T06:43:12;94266.28;;;14.61;100.00
55590;BME280;41452;42.780;23.116;2023-05-24T06:45:38;94255.38;;;14.57;100.00
55590;BME280;41452;42.780;23.116;2023-05-24T06:48:03;94275.34;;;14.80;100.00
55590;BME280;41452;42.780;23.116;2023-05-24T06:50:28;94277.28;;;15.00;100.00
55590;BME280;41452;42.780;23.116;2023-05-24T06:52:54;94274.38;;;15.07;100.00
55590;BME280;41452;42.780;23.116;2023-05-24T06:55:19;94231.75;;;14.93;100.00
55590;BME280;41452;42.780;23.116;2023-05-24T06:57:45;94273.38;;;15.29;100.00
55590;BME280;41452;42.780;23.116;2023-05-24T07:00:11;94270.78;;;15.39;100.00
55590;BME280;41452;42.780;23.116;2023-05-24T07:02:39;94273.44;;;15.54;100.00
55590;BME280;41452;42.780;23.116;2023-05-24T07:05:06;94271.88;;;15.58;100.00
55590;BME280;41452;42.780;23.116;2023-05-24T07:07:41;94249.63;;;15.59;100.00
55590;BME280;41452;42.780;23.116;2023-05-24T07:10:07;94269.53;;;15.93;100.00
55590;BME280;41452;42.780;23.116;2023-05-24T07:12:33;94250.97;;;15.88;100.00
55590;BME280;41452;42.780;23.116;2023-05-24T07:14:58;94249.66;;;15.80;100.00
55590;BME280;41452;42.780;23.116;2023-05-24T07:17:24;94271.59;;;15.70;100.00
55590;BME280;41452;42.780;23.116;2023-05-24T07:19:50;94250.69;;;15.74;97.11
55590;BME280;41452;42.780;23.116;2023-05-24T07:22:15;94274.28;;;16.06;98.20
55590;BME280;41452;42.780;23.116;2023-05-24T07:24:41;94221.06;;;15.87;99.70
55590;BME280;41452;42.780;23.116;2023-05-24T07:27:06;94240.38;;;16.08;100.00
55590;BME280;41452;42.780;23.116;2023-05-24T07:29:31;94244.06;;;16.23;98.97
55590;BME280;41452;42.780;23.116;2023-05-24T07:31:57;94272.34;;;16.63;95.45
55590;BME280;41452;42.780;23.116;2023-05-24T07:34:22;94264.84;;;16.86;93.98
55590;BME280;41452;42.780;23.116;2023-05-24T07:36:51;94263.56;;;16.83;95.17
55590;BME280;41452;42.780;23.116;2023-05-24T07:39:17;94278.31;;;17.05;90.07
55590;BME280;41452;42.780;23.116;2023-05-24T07:41:43;94271.13;;;17.10;87.94
55590;BME280;41452;42.780;23.116;2023-05-24T07:44:09;94258.41;;;17.13;87.95
55590;BME280;41452;42.780;23.116;2023-05-24T07:46:36;94272.34;;;17.34;90.27
55590;BME280;41452;42.780;23.116;2023-05-24T07:49:02;94252.44;;;17.36;90.33
55590;BME280;41452;42.780;23.116;2023-05-24T07:51:27;94194.97;;;17.16;89.63
55590;BME280;41452;42.780;23.116;2023-05-24T07:53:52;94271.91;;;17.66;89.22
55590;BME280;41452;42.780;23.116;2023-05-24T07:56:18;94257.78;;;17.71;86.06
55590;BME280;41452;42.780;23.116;2023-05-24T07:58:43;94263.88;;;17.71;85.64
55590;BME280;41452;42.780;23.116;2023-05-24T08:01:11;94273.22;;;18.03;85.75
55590;BME280;41452;42.780;23.116;2023-05-24T08:03:37;94264.16;;;18.09;84.43
55590;BME280;41452;42.780;23.116;2023-05-24T08:06:04;94252.91;;;18.17;77.88
55590;BME280;41452;42.780;23.116;2023-05-24T08:08:29;94248.69;;;18.16;74.88
55590;BME280;41452;42.780;23.116;2023-05-24T08:10:55;94264.06;;;18.49;75.42
55590;BME280;41452;42.780;23.116;2023-05-24T08:13:20;94220.09;;;18.32;76.67
55590;BME280;41452;42.780;23.116;2023-05-24T08:15:46;94250.16;;;18.57;78.51
55590;BME280;41452;42.780;23.116;2023-05-24T08:18:11;94230.72;;;18.56;72.67
55590;BME280;41452;42.780;23.116;2023-05-24T08:20:37;94251.38;;;18.94;67.34
55590;BME280;41452;42.780;23.116;2023-05-24T08:23:02;94242.63;;;18.88;70.14
55590;BME280;41452;42.780;23.116;2023-05-24T08:25:28;94227.91;;;18.96;67.18
55590;BME280;41452;42.780;23.116;2023-05-24T08:27:53;94236.00;;;19.10;66.51
55590;BME280;41452;42.780;23.116;2023-05-24T08:30:19;94224.91;;;19.22;71.95
55590;BME280;41452;42.780;23.116;2023-05-24T08:32:45;94224.00;;;19.31;66.24
55590;BME280;41452;42.780;23.116;2023-05-24T08:35:10;94230.31;;;19.35;60.65
55590;BME280;41452;42.780;23.116;2023-05-24T08:37:36;94235.06;;;19.57;60.26
55590;BME280;41452;42.780;23.116;2023-05-24T08:40:05;94238.47;;;19.63;61.40
55590;BME280;41452;42.780;23.116;2023-05-24T08:42:36;94251.91;;;19.91;57.95
55590;BME280;41452;42.780;23.116;2023-05-24T08:45:04;94255.06;;;19.93;63.82
55590;BME280;41452;42.780;23.116;2023-05-24T08:47:33;94255.28;;;19.97;62.11
55590;BME280;41452;42.780;23.116;2023-05-24T08:50:00;94253.63;;;20.01;64.15
55590;BME280;41452;42.780;23.116;2023-05-24T08:52:26;94256.53;;;20.18;61.35
55590;BME280;41452;42.780;23.116;2023-05-24T08:54:52;94254.56;;;20.24;59.83
55590;BME280;41452;42.780;23.116;2023-05-24T08:57:19;94249.88;;;20.48;59.02
55590;BME280;41452;42.780;23.116;2023-05-24T08:59:45;94222.19;;;20.44;60.01
55590;BME280;41452;42.780;23.116;2023-05-24T09:02:13;94204.75;;;20.52;56.56
55590;BME280;41452;42.780;23.116;2023-05-24T09:04:40;94227.00;;;20.75;54.79
55590;BME280;41452;42.780;23.116;2023-05-24T09:07:09;94252.31;;;20.92;55.43
55590;BME280;41452;42.780;23.116;2023-05-24T09:09:41;94190.59;;;20.51;54.48
55590;BME280;41452;42.780;23.116;2023-05-24T09:12:10;94251.09;;;21.12;55.30
55590;BME280;41452;42.780;23.116;2023-05-24T09:14:45;94241.75;;;21.23;53.49
55590;BME280;41452;42.780;23.116;2023-05-24T09:17:13;94247.63;;;21.25;55.73
55590;BME280;41452;42.780;23.116;2023-05-24T09:19:43;94250.00;;;21.26;54.27
55590;BME280;41452;42.780;23.116;2023-05-24T09:22:11;94226.75;;;21.27;55.10
55590;BME280;41452;42.780;23.116;2023-05-24T09:24:41;94239.22;;;21.18;53.77
55590;BME280;41452;42.780;23.116;2023-05-24T09:27:06;94221.63;;;21.03;50.13
55590;BME280;41452;42.780;23.116;2023-05-24T09:29:35;94238.22;;;21.27;54.11
55590;BME280;41452;42.780;23.116;2023-05-24T09:32:02;94238.47;;;21.40;50.85
55590;BME280;41452;42.780;23.116;2023-05-24T09:34:32;94252.28;;;21.70;47.31
55590;BME280;41452;42.780;23.116;2023-05-24T09:37:02;94232.00;;;21.69;47.02
55590;BME280;41452;42.780;23.116;2023-05-24T09:39:27;94250.03;;;21.63;47.24
55590;BME280;41452;42.780;23.116;2023-05-24T09:41:53;94210.47;;;21.51;46.69
55590;BME280;41452;42.780;23.116;2023-05-24T09:44:25;94235.09;;;21.84;47.38
55590;BME280;41452;42.780;23.116;2023-05-24T09:46:57;94224.09;;;21.86;45.72
55590;BME280;41452;42.780;23.116;2023-05-24T09:49:25;94240.50;;;21.93;46.75
55590;BME280;41452;42.780;23.116;2023-05-24T09:51:51;94239.34;;;22.08;53.15
55590;BME280;41452;42.780;23.116;2023-05-24T09:54:16;94228.03;;;21.89;45.20
55590;BME280;41452;42.780;23.116;2023-05-24T09:56:45;94201.13;;;22.08;45.12
55590;BME280;41452;42.780;23.116;2023-05-24T09:59:10;94230.53;;;22.08;42.34
55590;BME280;41452;42.780;23.116;2023-05-24T10:01:36;94209.50;;;21.47;45.52
55590;BME280;41452;42.780;23.116;2023-05-24T10:04:01;94211.50;;;21.27;48.49
55590;BME280;41452;42.780;23.116;2023-05-24T10:06:32;94233.59;;;21.70;42.80
55590;BME280;41452;42.780;23.116;2023-05-24T10:09:01;94217.38;;;21.66;49.40
55590;BME280;41452;42.780;23.116;2023-05-24T10:11:26;94216.31;;;21.98;48.33
55590;BME280;41452;42.780;23.116;2023-05-24T10:13:52;94219.28;;;22.19;49.27
55590;BME280;41452;42.780;23.116;2023-05-24T10:16:17;94212.47;;;22.36;49.62
55590;BME280;41452;42.780;23.116;2023-05-24T10:18:43;94206.69;;;22.43;43.95
55590;BME280;41452;42.780;23.116;2023-05-24T10:21:09;94191.66;;;22.64;45.39
55590;BME280;41452;42.780;23.116;2023-05-24T10:23:37;94209.91;;;22.62;43.60
55590;BME280;41452;42.780;23.116;2023-05-24T10:26:07;94217.88;;;22.85;45.14
55590;BME280;41452;42.780;23.116;2023-05-24T10:28:46;94185.75;;;22.85;46.72
55590;BME280;41452;42.780;23.116;2023-05-24T10:31:39;94216.84;;;23.12;43.11
55590;BME280;41452;42.780;23.116;2023-05-24T10:34:05;94201.72;;;23.07;43.14
55590;BME280;41452;42.780;23.116;2023-05-24T10:36:32;94202.50;;;23.16;44.70
55590;BME280;41452;42.780;23.116;2023-05-24T10:38:58;94200.47;;;23.13;43.33
55590;BME280;41452;42.780;23.116;2023-05-24T10:41:27;94199.69;;;23.39;42.33
55590;BME280;41452;42.780;23.116;2023-05-24T10:43:52;94183.59;;;22.55;40.90
55590;BME280;41452;42.780;23.116;2023-05-24T10:46:19;94179.28;;;22.86;41.87
55590;BME280;41452;42.780;23.116;2023-05-24T10:48:58;94178.09;;;23.18;43.47
55590;BME280;41452;42.780;23.116;2023-05-24T10:51:32;94201.88;;;23.20;39.49
55590;BME280;41452;42.780;23.116;2023-05-24T10:54:09;94183.44;;;23.18;40.13
55590;BME280;41452;42.780;23.116;2023-05-24T10:56:39;94171.16;;;23.08;44.67
55590;BME280;41452;42.780;23.116;2023-05-24T10:59:05;94195.63;;;23.50;43.91
55590;BME280;41452;42.780;23.116;2023-05-24T11:01:32;94193.88;;;23.63;42.47
55590;BME280;41452;42.780;23.116;2023-05-24T11:04:09;94184.75;;;23.38;42.64
55590;BME280;41452;42.780;23.116;2023-05-24T11:09:13;94191.38;;;23.49;41.20
55590;BME280;41452;42.780;23.116;2023-05-24T11:11:43;94167.56;;;23.39;42.17
55590;BME280;41452;42.780;23.116;2023-05-24T11:14:09;94151.97;;;23.24;42.49
55590;BME280;41452;42.780;23.116;2023-05-24T11:16:37;94181.09;;;23.51;44.19
55590;BME280;41452;42.780;23.116;2023-05-24T11:21:37;94168.97;;;23.37;43.68
55590;BME280;41452;42.780;23.116;2023-05-24T11:24:03;94169.44;;;23.65;43.07
55590;BME280;41452;42.780;23.116;2023-05-24T11:26:29;94185.34;;;23.96;43.31
55590;BME280;41452;42.780;23.116;2023-05-24T11:28:56;94152.88;;;23.89;40.47
55590;BME280;41452;42.780;23.116;2023-05-24T11:31:26;94165.47;;;23.97;40.04
55590;BME280;41452;42.780;23.116;2023-05-24T11:33:51;94155.59;;;23.54;43.13
55590;BME280;41452;42.780;23.116;2023-05-24T11:36:18;94085.75;;;23.42;44.12
55590;BME280;41452;42.780;23.116;2023-05-24T11:38:45;94159.78;;;24.07;43.69
55590;BME280;41452;42.780;23.116;2023-05-24T11:41:11;94167.41;;;24.35;43.05
55590;BME280;41452;42.780;23.116;2023-05-24T11:43:37;94112.97;;;23.87;42.58
55590;BME280;41452;42.780;23.116;2023-05-24T11:46:02;94163.59;;;23.89;40.96
55590;BME280;41452;42.780;23.116;2023-05-24T11:48:28;94153.03;;;23.92;43.32
55590;BME280;41452;42.780;23.116;2023-05-24T11:50:55;94146.22;;;24.04;42.61
55590;BME280;41452;42.780;23.116;2023-05-24T11:53:21;94153.56;;;24.24;43.74
55590;BME280;41452;42.780;23.116;2023-05-24T11:55:47;94121.38;;;24.24;42.51
55590;BME280;41452;42.780;23.116;2023-05-24T12:00:42;94161.41;;;24.38;42.29
55590;BME280;41452;42.780;23.116;2023-05-24T12:03:08;94135.38;;;24.30;43.24
55590;BME280;41452;42.780;23.116;2023-05-24T12:05:35;94133.50;;;24.31;43.87
55590;BME280;41452;42.780;23.116;2023-05-24T12:08:05;94160.72;;;24.59;43.70
55590;BME280;41452;42.780;23.116;2023-05-24T12:10:38;94149.22;;;24.41;39.91
55590;BME280;41452;42.780;23.116;2023-05-24T12:13:05;94144.50;;;24.55;40.94
55590;BME280;41452;42.780;23.116;2023-05-24T12:15:34;94142.88;;;24.63;41.11
55590;BME280;41452;42.780;23.116;2023-05-24T12:17:59;94130.22;;;24.63;44.07
55590;BME280;41452;42.780;23.116;2023-05-24T12:20:28;94110.38;;;24.56;40.09
55590;BME280;41452;42.780;23.116;2023-05-24T12:22:54;94151.56;;;24.90;40.37
55590;BME280;41452;42.780;23.116;2023-05-24T12:25:22;94149.91;;;24.97;43.02
55590;BME280;41452;42.780;23.116;2023-05-24T12:27:54;94143.84;;;25.09;45.13
55590;BME280;41452;42.780;23.116;2023-05-24T12:30:25;94125.22;;;24.83;41.91
55590;BME280;41452;42.780;23.116;2023-05-24T12:32:51;94140.13;;;25.01;39.91
55590;BME280;41452;42.780;23.116;2023-05-24T12:35:19;94090.03;;;24.76;40.62
55590;BME280;41452;42.780;23.116;2023-05-24T12:37:44;94115.38;;;24.87;41.88
55590;BME280;41452;42.780;23.116;2023-05-24T12:40:15;94109.22;;;24.86;43.33
55590;BME280;41452;42.780;23.116;2023-05-24T12:42:42;94114.16;;;24.55;43.69
55590;BME280;41452;42.780;23.116;2023-05-24T12:45:09;94093.16;;;24.48;42.73
55590;BME280;41452;42.780;23.116;2023-05-24T12:47:34;94105.91;;;24.60;44.14
55590;BME280;41452;42.780;23.116;2023-05-24T12:50:00;94111.78;;;24.53;39.03
55590;BME280;41452;42.780;23.116;2023-05-24T12:52:26;94105.56;;;24.32;38.06
55590;BME280;41452;42.780;23.116;2023-05-24T12:54:51;94109.94;;;24.45;40.30
55590;BME280;41452;42.780;23.116;2023-05-24T12:57:17;94106.41;;;24.53;43.68
55590;BME280;41452;42.780;23.116;2023-05-24T12:59:43;94081.38;;;24.40;42.46
55590;BME280;41452;42.780;23.116;2023-05-24T13:02:09;94099.00;;;24.59;44.95
55590;BME280;41452;42.780;23.116;2023-05-24T13:04:34;94096.78;;;24.52;41.99
55590;BME280;41452;42.780;23.116;2023-05-24T13:07:01;94125.31;;;24.65;40.68
55590;BME280;41452;42.780;23.116;2023-05-24T13:09:27;94101.56;;;24.46;40.97
55590;BME280;41452;42.780;23.116;2023-05-24T13:11:53;94104.97;;;24.64;43.17
55590;BME280;41452;42.780;23.116;2023-05-24T13:14:19;94074.63;;;24.34;41.91